sensor_id;sensor_type;location;lat;lon;timestamp;pressure;altitude;pressure_sealevel;temperature;humidity
67457;BME280;54319;52.038;4.640;2023-12-20T00:01:42;101642.56;;;6.16;100.00
67457;BME280;54319;52.038;4.640;2023-12-20T00:04:09;101650.72;;;6.25;100.00
67457;BME280;54319;52.038;4.640;2023-12-20T00:06:35;101652.41;;;6.17;100.00
67457;BME280;54319;52.038;4.640;2023-12-20T00:09:06;101642.25;;;6.19;100.00
67457;BME280;54319;52.038;4.640;2023-12-20T00:11:33;101639.50;;;6.11;100.00
67457;BME280;54319;52.038;4.640;2023-12-20T00:13:59;101647.25;;;6.06;100.00
67457;BME280;54319;52.038;4.640;2023-12-20T00:16:26;101631.72;;;6.08;100.00
67457;BME280;54319;52.038;4.640;2023-12-20T00:18:53;101633.69;;;6.06;100.00
67457;BME280;54319;52.038;4.640;2023-12-20T00:21:19;101650.38;;;6.19;100.00
67457;BME280;54319;52.038;4.640;2023-12-20T00:23:46;101644.97;;;6.19;100.00
67457;BME280;54319;52.038;4.640;2023-12-20T00:26:14;101634.47;;;6.25;100.00
67457;BME280;54319;52.038;4.640;2023-12-20T00:28:41;101597.41;;;5.99;100.00
67457;BME280;54319;52.038;4.640;2023-12-20T00:31:08;101634.25;;;6.18;100.00
67457;BME280;54319;52.038;4.640;2023-12-20T00:33:34;101648.03;;;6.33;100.00
67457;BME280;54319;52.038;4.640;2023-12-20T00:36:01;101623.28;;;6.19;100.00
67457;BME280;54319;52.038;4.640;2023-12-20T00:38:28;101644.66;;;6.31;100.00
67457;BME280;54319;52.038;4.640;2023-12-20T00:40:57;101642.81;;;6.31;100.00
67457;BME280;54319;52.038;4.640;2023-12-20T00:43:28;101646.00;;;6.35;100.00
67457;BME280;54319;52.038;4.640;2023-12-20T00:45:54;101640.09;;;6.31;100.00
67457;BME280;54319;52.038;4.640;2023-12-20T00:48:22;101648.38;;;6.30;100.00
67457;BME280;54319;52.038;4.640;2023-12-20T00:50:48;101643.66;;;6.40;100.00
67457;BME280;54319;52.038;4.640;2023-12-20T00:53:15;101638.44;;;6.47;100.00
67457;BME280;54319;52.038;4.640;2023-12-20T00:55:42;101643.72;;;6.57;100.00
67457;BME280;54319;52.038;4.640;2023-12-20T00:58:09;101657.63;;;6.62;100.00
67457;BME280;54319;52.038;4.640;2023-12-20T01:00:38;101640.00;;;6.58;100.00
67457;BME280;54319;52.038;4.640;2023-12-20T01:03:06;101576.03;;;6.22;100.00
67457;BME280;54319;52.038;4.640;2023-12-20T01:05:33;101619.09;;;6.42;100.00
67457;BME280;54319;52.038;4.640;2023-12-20T01:08:00;101645.22;;;6.59;100.00
67457;BME280;54319;52.038;4.640;2023-12-20T01:10:28;101637.97;;;6.60;100.00
67457;BME280;54319;52.038;4.640;2023-12-20T01:12:56;101619.31;;;6.48;100.00
67457;BME280;54319;52.038;4.640;2023-12-20T01:15:23;101642.69;;;6.58;100.00
67457;BME280;54319;52.038;4.640;2023-12-20T01:17:51;101644.22;;;6.60;100.00
67457;BME280;54319;52.038;4.640;2023-12-20T01:20:18;101654.56;;;6.65;100.00
67457;BME280;54319;52.038;4.640;2023-12-20T01:22:45;101661.34;;;6.61;100.00
67457;BME280;54319;52.038;4.640;2023-12-20T01:25:12;101643.53;;;6.58;100.00
67457;BME280;54319;52.038;4.640;2023-12-20T01:27:39;101653.56;;;6.66;100.00
67457;BME280;54319;52.038;4.640;2023-12-20T01:30:06;101663.88;;;6.62;100.00
67457;BME280;54319;52.038;4.640;2023-12-20T01:32:35;101650.31;;;6.62;100.00
67457;BME280;54319;52.038;4.640;2023-12-20T01:35:03;101644.88;;;6.62;100.00
67457;BME280;54319;52.038;4.640;2023-12-20T01:37:31;101633.91;;;6.64;100.00
67457;BME280;54319;52.038;4.640;2023-12-20T01:39:58;101629.63;;;6.61;100.00
67457;BME280;54319;52.038;4.640;2023-12-20T01:42:25;101643.41;;;6.76;100.00
67457;BME280;54319;52.038;4.640;2023-12-20T01:44:52;101606.44;;;6.67;100.00
67457;BME280;54319;52.038;4.640;2023-12-20T01:47:18;101619.50;;;6.72;100.00
67457;BME280;54319;52.038;4.640;2023-12-20T01:49:45;101639.31;;;6.80;100.00
67457;BME280;54319;52.038;4.640;2023-12-20T01:52:13;101635.59;;;6.81;100.00
67457;BME280;54319;52.038;4.640;2023-12-20T01:54:41;101636.66;;;6.89;100.00
67457;BME280;54319;52.038;4.640;2023-12-20T01:57:09;101619.00;;;6.76;100.00
67457;BME280;54319;52.038;4.640;2023-12-20T01:59:37;101643.25;;;6.94;100.00
67457;BME280;54319;52.038;4.640;2023-12-20T02:02:04;101608.47;;;6.81;100.00
67457;BME280;54319;52.038;4.640;2023-12-20T02:04:31;101611.88;;;6.75;100.00
67457;BME280;54319;52.038;4.640;2023-12-20T02:06:58;101632.59;;;6.85;100.00
67457;BME280;54319;52.038;4.640;2023-12-20T02:09:27;101621.22;;;6.81;100.00
67457;BME280;54319;52.038;4.640;2023-12-20T02:11:54;101625.78;;;6.80;100.00
67457;BME280;54319;52.038;4.640;2023-12-20T02:14:21;101632.56;;;6.93;100.00
67457;BME280;54319;52.038;4.640;2023-12-20T02:16:48;101644.09;;;6.87;100.00
67457;BME280;54319;52.038;4.640;2023-12-20T02:19:15;101608.66;;;6.72;100.00
67457;BME280;54319;52.038;4.640;2023-12-20T02:21:45;101633.25;;;6.87;100.00
67457;BME280;54319;52.038;4.640;2023-12-20T02:24:11;101614.09;;;6.80;100.00
67457;BME280;54319;52.038;4.640;2023-12-20T02:26:40;101630.53;;;6.87;100.00
67457;BME280;54319;52.038;4.640;2023-12-20T02:29:10;101639.38;;;6.89;100.00
67457;BME280;54319;52.038;4.640;2023-12-20T02:31:38;101639.69;;;6.86;100.00
67457;BME280;54319;52.038;4.640;2023-12-20T02:34:04;101633.25;;;6.87;100.00
67457;BME280;54319;52.038;4.640;2023-12-20T02:36:31;101598.66;;;6.80;100.00
67457;BME280;54319;52.038;4.640;2023-12-20T02:38:59;101610.34;;;6.73;100.00
67457;BME280;54319;52.038;4.640;2023-12-20T02:41:26;101613.06;;;6.64;100.00
67457;BME280;54319;52.038;4.640;2023-12-20T02:43:52;101620.34;;;6.72;100.00
67457;BME280;54319;52.038;4.640;2023-12-20T02:46:19;101607.47;;;6.74;100.00
67457;BME280;54319;52.038;4.640;2023-12-20T02:48:46;101620.53;;;6.79;100.00
67457;BME280;54319;52.038;4.640;2023-12-20T02:51:13;101597.97;;;6.78;100.00
67457;BME280;54319;52.038;4.640;2023-12-20T02:53:40;101591.91;;;6.85;100.00
67457;BME280;54319;52.038;4.640;2023-12-20T02:56:08;101594.09;;;6.81;100.00
67457;BME280;54319;52.038;4.640;2023-12-20T02:58:35;101597.97;;;6.78;100.00
67457;BME280;54319;52.038;4.640;2023-12-20T03:01:02;101594.91;;;6.81;100.00
67457;BME280;54319;52.038;4.640;2023-12-20T03:03:29;101604.78;;;6.91;100.00
67457;BME280;54319;52.038;4.640;2023-12-20T03:05:57;101598.69;;;6.89;100.00
67457;BME280;54319;52.038;4.640;2023-12-20T03:08:23;101600.72;;;6.87;100.00
67457;BME280;54319;52.038;4.640;2023-12-20T03:10:50;101599.69;;;6.96;100.00
67457;BME280;54319;52.038;4.640;2023-12-20T03:13:19;101594.41;;;6.94;100.00
67457;BME280;54319;52.038;4.640;2023-12-20T03:15:46;101600.38;;;6.98;100.00
67457;BME280;54319;52.038;4.640;2023-12-20T03:18:13;101579.34;;;6.84;100.00
67457;BME280;54319;52.038;4.640;2023-12-20T03:20:39;101592.56;;;6.95;100.00
67457;BME280;54319;52.038;4.640;2023-12-20T03:23:07;101599.50;;;6.89;100.00
67457;BME280;54319;52.038;4.640;2023-12-20T03:25:33;101591.91;;;6.85;100.00
67457;BME280;54319;52.038;4.640;2023-12-20T03:28:00;101596.31;;;6.94;100.00
67457;BME280;54319;52.038;4.640;2023-12-20T03:30:28;101605.13;;;6.96;100.00
67457;BME280;54319;52.038;4.640;2023-12-20T03:32:55;101607.00;;;7.04;100.00
67457;BME280;54319;52.038;4.640;2023-12-20T03:35:21;101610.19;;;6.99;100.00
67457;BME280;54319;52.038;4.640;2023-12-20T03:37:48;101611.22;;;6.98;100.00
67457;BME280;54319;52.038;4.640;2023-12-20T03:40:16;101606.63;;;6.99;100.00
67457;BME280;54319;52.038;4.640;2023-12-20T03:42:44;101554.94;;;6.67;100.00
67457;BME280;54319;52.038;4.640;2023-12-20T03:45:11;101599.88;;;7.03;100.00
67457;BME280;54319;52.038;4.640;2023-12-20T03:47:39;101594.09;;;6.89;100.00
67457;BME280;54319;52.038;4.640;2023-12-20T03:50:06;101601.38;;;6.89;100.00
67457;BME280;54319;52.038;4.640;2023-12-20T03:52:33;101593.75;;;6.84;100.00
67457;BME280;54319;52.038;4.640;2023-12-20T03:55:00;101570.19;;;6.68;100.00
67457;BME280;54319;52.038;4.640;2023-12-20T03:57:27;101585.28;;;6.87;100.00
67457;BME280;54319;52.038;4.640;2023-12-20T03:59:53;101569.84;;;6.71;100.00
67457;BME280;54319;52.038;4.640;2023-12-20T04:02:20;101573.56;;;6.70;100.00
67457;BME280;54319;52.038;4.640;2023-12-20T04:04:48;101585.09;;;6.72;100.00
67457;BME280;54319;52.038;4.640;2023-12-20T04:07:14;101586.28;;;6.70;100.00
67457;BME280;54319;52.038;4.640;2023-12-20T04:09:41;101588.47;;;6.74;100.00
67457;BME280;54319;52.038;4.640;2023-12-20T04:12:08;101589.84;;;6.70;100.00
67457;BME280;54319;52.038;4.640;2023-12-20T04:14:34;101581.38;;;6.73;100.00
67457;BME280;54319;52.038;4.640;2023-12-20T04:17:01;101595.59;;;6.75;100.00
67457;BME280;54319;52.038;4.640;2023-12-20T04:19:29;101578.34;;;6.85;100.00
67457;BME280;54319;52.038;4.640;2023-12-20T04:21:57;101581.34;;;6.81;100.00
67457;BME280;54319;52.038;4.640;2023-12-20T04:24:24;101585.28;;;6.87;100.00
67457;BME280;54319;52.038;4.640;2023-12-20T04:26:50;101580.34;;;6.74;100.00
67457;BME280;54319;52.038;4.640;2023-12-20T04:29:17;101585.78;;;6.74;100.00
67457;BME280;54319;52.038;4.640;2023-12-20T04:31:44;101584.75;;;6.67;100.00
67457;BME280;54319;52.038;4.640;2023-12-20T04:34:11;101589.69;;;6.63;100.00
67457;BME280;54319;52.038;4.640;2023-12-20T04:36:37;101580.69;;;6.63;100.00
67457;BME280;54319;52.038;4.640;2023-12-20T04:39:05;101578.13;;;6.61;100.00
67457;BME280;54319;52.038;4.640;2023-12-20T04:41:32;101568.81;;;6.56;100.00
67457;BME280;54319;52.038;4.640;2023-12-20T04:43:59;101570.00;;;6.53;100.00
67457;BME280;54319;52.038;4.640;2023-12-20T04:46:26;101559.66;;;6.48;100.00
67457;BME280;54319;52.038;4.640;2023-12-20T04:48:53;101557.94;;;6.39;100.00
67457;BME280;54319;52.038;4.640;2023-12-20T04:51:20;101568.81;;;6.47;100.00
67457;BME280;54319;52.038;4.640;2023-12-20T04:53:47;101556.63;;;6.51;100.00
67457;BME280;54319;52.038;4.640;2023-12-20T04:56:15;101568.16;;;6.54;100.00
67457;BME280;54319;52.038;4.640;2023-12-20T04:58:42;101530.16;;;6.37;100.00
67457;BME280;54319;52.038;4.640;2023-12-20T05:01:09;101529.13;;;6.38;100.00
67457;BME280;54319;52.038;4.640;2023-12-20T05:03:36;101565.94;;;6.57;100.00
67457;BME280;54319;52.038;4.640;2023-12-20T05:06:04;101568.81;;;6.56;100.00
67457;BME280;54319;52.038;4.640;2023-12-20T05:08:30;101571.69;;;6.54;100.00
67457;BME280;54319;52.038;4.640;2023-12-20T05:10:57;101571.19;;;6.50;100.00
67457;BME280;54319;52.038;4.640;2023-12-20T05:13:25;101567.44;;;6.43;100.00
67457;BME280;54319;52.038;4.640;2023-12-20T05:15:53;101572.53;;;6.46;100.00
67457;BME280;54319;52.038;4.640;2023-12-20T05:18:20;101569.16;;;6.44;100.00
67457;BME280;54319;52.038;4.640;2023-12-20T05:20:47;101580.00;;;6.44;100.00
67457;BME280;54319;52.038;4.640;2023-12-20T05:23:13;101584.75;;;6.50;100.00
67457;BME280;54319;52.038;4.640;2023-12-20T05:25:40;101589.31;;;6.50;100.00
67457;BME280;54319;52.038;4.640;2023-12-20T05:28:07;101582.72;;;6.53;100.00
67457;BME280;54319;52.038;4.640;2023-12-20T05:30:35;101567.47;;;6.60;100.00
67457;BME280;54319;52.038;4.640;2023-12-20T05:33:01;101574.09;;;6.65;100.00
67457;BME280;54319;52.038;4.640;2023-12-20T05:35:28;101561.38;;;6.66;100.00
67457;BME280;54319;52.038;4.640;2023-12-20T05:37:54;101567.81;;;6.65;100.00
67457;BME280;54319;52.038;4.640;2023-12-20T05:40:21;101562.22;;;6.66;100.00
67457;BME280;54319;52.038;4.640;2023-12-20T05:42:48;101571.38;;;6.74;100.00
67457;BME280;54319;52.038;4.640;2023-12-20T05:45:15;101566.09;;;6.72;100.00
67457;BME280;54319;52.038;4.640;2023-12-20T05:47:43;101554.25;;;6.73;100.00
67457;BME280;54319;52.038;4.640;2023-12-20T05:50:09;101556.13;;;6.81;100.00
67457;BME280;54319;52.038;4.640;2023-12-20T05:52:36;101551.88;;;6.87;100.00
67457;BME280;54319;52.038;4.640;2023-12-20T05:55:03;101554.59;;;6.87;100.00
67457;BME280;54319;52.038;4.640;2023-12-20T05:57:30;101557.31;;;6.87;100.00
67457;BME280;54319;52.038;4.640;2023-12-20T05:59:56;101555.28;;;6.89;100.00
67457;BME280;54319;52.038;4.640;2023-12-20T06:02:23;101556.63;;;6.85;100.00
67457;BME280;54319;52.038;4.640;2023-12-20T06:04:51;101542.06;;;6.86;100.00
67457;BME280;54319;52.038;4.640;2023-12-20T06:07:17;101570.19;;;6.93;100.00
67457;BME280;54319;52.038;4.640;2023-12-20T06:09:44;101565.94;;;6.99;100.00
67457;BME280;54319;52.038;4.640;2023-12-20T06:12:12;101561.03;;;7.02;100.00
67457;BME280;54319;52.038;4.640;2023-12-20T06:14:39;101569.84;;;7.04;100.00
67457;BME280;54319;52.038;4.640;2023-12-20T06:17:05;101570.69;;;7.05;100.00
67457;BME280;54319;52.038;4.640;2023-12-20T06:19:32;101554.75;;;7.02;100.00
67457;BME280;54319;52.038;4.640;2023-12-20T06:22:00;101561.34;;;7.07;100.00
67457;BME280;54319;52.038;4.640;2023-12-20T06:24:28;101569.50;;;7.07;100.00
67457;BME280;54319;52.038;4.640;2023-12-20T06:26:55;101567.78;;;7.06;100.00
67457;BME280;54319;52.038;4.640;2023-12-20T06:29:22;101567.78;;;7.06;100.00
67457;BME280;54319;52.038;4.640;2023-12-20T06:31:49;101559.31;;;7.09;100.00
67457;BME280;54319;52.038;4.640;2023-12-20T06:34:15;101563.72;;;7.10;100.00
67457;BME280;54319;52.038;4.640;2023-12-20T06:36:42;101551.19;;;7.01;100.00
67457;BME280;54319;52.038;4.640;2023-12-20T06:39:10;101557.13;;;7.13;100.00
67457;BME280;54319;52.038;4.640;2023-12-20T06:41:37;101562.34;;;7.15;100.00
67457;BME280;54319;52.038;4.640;2023-12-20T06:44:04;101519.00;;;6.90;100.00
67457;BME280;54319;52.038;4.640;2023-12-20T06:46:31;101562.53;;;7.13;100.00
67457;BME280;54319;52.038;4.640;2023-12-20T06:48:58;101559.31;;;7.09;100.00
67457;BME280;54319;52.038;4.640;2023-12-20T06:51:24;101544.25;;;7.07;100.00
67457;BME280;54319;52.038;4.640;2023-12-20T06:53:51;101550.47;;;7.16;100.00
67457;BME280;54319;52.038;4.640;2023-12-20T06:56:19;101547.59;;;7.17;100.00
67457;BME280;54319;52.038;4.640;2023-12-20T06:58:46;101527.63;;;7.02;100.00
67457;BME280;54319;52.038;4.640;2023-12-20T07:01:13;101544.69;;;7.19;100.00
67457;BME280;54319;52.038;4.640;2023-12-20T07:03:40;101538.97;;;7.22;100.00
67457;BME280;54319;52.038;4.640;2023-12-20T07:06:07;101543.72;;;7.20;100.00
67457;BME280;54319;52.038;4.640;2023-12-20T07:08:34;101537.75;;;7.24;100.00
67457;BME280;54319;52.038;4.640;2023-12-20T07:11:00;101535.72;;;7.18;100.00
67457;BME280;54319;52.038;4.640;2023-12-20T07:13:29;101541.31;;;7.17;100.00
67457;BME280;54319;52.038;4.640;2023-12-20T07:15:56;101537.59;;;7.09;100.00
67457;BME280;54319;52.038;4.640;2023-12-20T07:18:23;101522.03;;;7.03;100.00
67457;BME280;54319;52.038;4.640;2023-12-20T07:20:50;101515.41;;;7.06;100.00
67457;BME280;54319;52.038;4.640;2023-12-20T07:23:16;101318.13;;;5.77;100.00
67457;BME280;54319;52.038;4.640;2023-12-20T07:25:45;101468.84;;;6.69;100.00
67457;BME280;54319;52.038;4.640;2023-12-20T07:28:11;101512.72;;;6.89;100.00
67457;BME280;54319;52.038;4.640;2023-12-20T07:30:42;101490.72;;;6.68;100.00
67457;BME280;54319;52.038;4.640;2023-12-20T07:33:09;101511.22;;;6.87;100.00
67457;BME280;54319;52.038;4.640;2023-12-20T07:35:37;101515.97;;;6.85;100.00
67457;BME280;54319;52.038;4.640;2023-12-20T07:38:04;101507.81;;;6.76;100.00
67457;BME280;54319;52.038;4.640;2023-12-20T07:40:31;101528.13;;;6.80;100.00
67457;BME280;54319;52.038;4.640;2023-12-20T07:42:58;101532.88;;;6.78;100.00
67457;BME280;54319;52.038;4.640;2023-12-20T07:45:25;101534.56;;;6.79;100.00
67457;BME280;54319;52.038;4.640;2023-12-20T07:47:53;101531.38;;;6.84;100.00
67457;BME280;54319;52.038;4.640;2023-12-20T07:50:20;101518.66;;;6.68;100.00
67457;BME280;54319;52.038;4.640;2023-12-20T07:52:46;101528.47;;;6.94;100.00
67457;BME280;54319;52.038;4.640;2023-12-20T07:55:13;101545.44;;;6.96;100.00
67457;BME280;54319;52.038;4.640;2023-12-20T07:57:40;101548.63;;;7.00;100.00
67457;BME280;54319;52.038;4.640;2023-12-20T08:00:07;101555.06;;;6.99;100.00
67457;BME280;54319;52.038;4.640;2023-12-20T08:02:34;101549.81;;;7.05;100.00
67457;BME280;54319;52.038;4.640;2023-12-20T08:05:03;101557.63;;;7.08;100.00
67457;BME280;54319;52.038;4.640;2023-12-20T08:07:29;101553.22;;;7.07;100.00
67457;BME280;54319;52.038;4.640;2023-12-20T08:09:56;101560.34;;;7.08;100.00
67457;BME280;54319;52.038;4.640;2023-12-20T08:12:22;101557.28;;;7.12;100.00
67457;BME280;54319;52.038;4.640;2023-12-20T08:14:52;101562.19;;;7.16;100.00
67457;BME280;54319;52.038;4.640;2023-12-20T08:17:19;101557.59;;;7.17;100.00
67457;BME280;54319;52.038;4.640;2023-12-20T08:19:46;101558.78;;;7.22;100.00
67457;BME280;54319;52.038;4.640;2023-12-20T08:22:14;101561.00;;;7.27;100.00
67457;BME280;54319;52.038;4.640;2023-12-20T08:24:41;101553.38;;;7.22;100.00
67457;BME280;54319;52.038;4.640;2023-12-20T08:27:08;101563.69;;;7.35;100.00
67457;BME280;54319;52.038;4.640;2023-12-20T08:29:35;101552.50;;;7.30;100.00
67457;BME280;54319;52.038;4.640;2023-12-20T08:32:02;101567.41;;;7.43;100.00
67457;BME280;54319;52.038;4.640;2023-12-20T08:34:29;101564.16;;;7.47;100.00
67457;BME280;54319;52.038;4.640;2023-12-20T08:36:55;101571.97;;;7.50;100.00
67457;BME280;54319;52.038;4.640;2023-12-20T08:39:23;101561.78;;;7.52;100.00
67457;BME280;54319;52.038;4.640;2023-12-20T08:41:50;101575.00;;;7.56;100.00
67457;BME280;54319;52.038;4.640;2023-12-20T08:44:16;101579.91;;;7.60;100.00
67457;BME280;54319;52.038;4.640;2023-12-20T08:46:43;101577.88;;;7.62;100.00
67457;BME280;54319;52.038;4.640;2023-12-20T08:49:10;101571.59;;;7.62;100.00
67457;BME280;54319;52.038;4.640;2023-12-20T08:51:37;101568.34;;;7.66;100.00
67457;BME280;54319;52.038;4.640;2023-12-20T08:54:07;101549.50;;;7.65;100.00
67457;BME280;54319;52.038;4.640;2023-12-20T08:56:37;101555.25;;;7.78;100.00
67457;BME280;54319;52.038;4.640;2023-12-20T08:59:04;101561.50;;;7.79;100.00
67457;BME280;54319;52.038;4.640;2023-12-20T09:01:31;101549.47;;;7.81;100.00
67457;BME280;54319;52.038;4.640;2023-12-20T09:03:57;101560.50;;;7.80;100.00
67457;BME280;54319;52.038;4.640;2023-12-20T09:06:24;101559.47;;;7.81;100.00
67457;BME280;54319;52.038;4.640;2023-12-20T09:08:51;101549.56;;;7.88;100.00
67457;BME280;54319;52.038;4.640;2023-12-20T09:11:17;101553.47;;;7.94;100.00
67457;BME280;54319;52.038;4.640;2023-12-20T09:13:45;101561.25;;;7.97;100.00
67457;BME280;54319;52.038;4.640;2023-12-20T09:16:12;101544.78;;;7.99;100.00
67457;BME280;54319;52.038;4.640;2023-12-20T09:18:41;101549.97;;;8.08;100.00
67457;BME280;54319;52.038;4.640;2023-12-20T09:21:07;101546.44;;;8.08;100.00
67457;BME280;54319;52.038;4.640;2023-12-20T09:23:34;101550.13;;;8.15;100.00
67457;BME280;54319;52.038;4.640;2023-12-20T09:26:01;101544.53;;;8.17;100.00
67457;BME280;54319;52.038;4.640;2023-12-20T09:28:28;101548.44;;;8.14;100.00
67457;BME280;54319;52.038;4.640;2023-12-20T09:30:56;101545.88;;;8.13;100.00
67457;BME280;54319;52.038;4.640;2023-12-20T09:33:23;101543.81;;;8.23;100.00
67457;BME280;54319;52.038;4.640;2023-12-20T09:35:50;101554.47;;;8.24;100.00
67457;BME280;54319;52.038;4.640;2023-12-20T09:38:16;101541.44;;;8.20;100.00
67457;BME280;54319;52.038;4.640;2023-12-20T09:40:43;101552.44;;;8.26;100.00
67457;BME280;54319;52.038;4.640;2023-12-20T09:43:13;101537.78;;;8.36;100.00
67457;BME280;54319;52.038;4.640;2023-12-20T09:45:41;101554.25;;;8.34;100.00
67457;BME280;54319;52.038;4.640;2023-12-20T09:48:11;101527.44;;;8.31;100.00
67457;BME280;54319;52.038;4.640;2023-12-20T09:50:39;101560.00;;;8.39;100.00
67457;BME280;54319;52.038;4.640;2023-12-20T09:53:08;101564.78;;;8.37;100.00
67457;BME280;54319;52.038;4.640;2023-12-20T09:55:36;101551.44;;;8.51;100.00
67457;BME280;54319;52.038;4.640;2023-12-20T09:58:03;101566.41;;;8.55;100.00
67457;BME280;54319;52.038;4.640;2023-12-20T10:00:31;101566.56;;;8.53;100.00
67457;BME280;54319;52.038;4.640;2023-12-20T10:02:59;101566.88;;;8.59;100.00
67457;BME280;54319;52.038;4.640;2023-12-20T10:05:29;101549.16;;;8.63;100.00
67457;BME280;54319;52.038;4.640;2023-12-20T10:07:56;101554.59;;;8.63;100.00
67457;BME280;54319;52.038;4.640;2023-12-20T10:10:23;101559.63;;;8.74;100.00
67457;BME280;54319;52.038;4.640;2023-12-20T10:13:05;101562.16;;;8.76;100.00
67457;BME280;54319;52.038;4.640;2023-12-20T10:15:32;101557.56;;;8.76;100.00
67457;BME280;54319;52.038;4.640;2023-12-20T10:17:59;101557.25;;;8.71;100.00
67457;BME280;54319;52.038;4.640;2023-12-20T10:20:28;101555.00;;;8.75;100.00
67457;BME280;54319;52.038;4.640;2023-12-20T10:22:55;101551.81;;;8.71;100.00
67457;BME280;54319;52.038;4.640;2023-12-20T10:25:22;101562.81;;;8.78;100.00
67457;BME280;54319;52.038;4.640;2023-12-20T10:27:49;101563.97;;;8.83;100.00
67457;BME280;54319;52.038;4.640;2023-12-20T10:30:16;101550.72;;;8.80;100.00
67457;BME280;54319;52.038;4.640;2023-12-20T10:32:42;101522.53;;;8.58;100.00
67457;BME280;54319;52.038;4.640;2023-12-20T10:35:09;101550.91;;;8.79;100.00
67457;BME280;54319;52.038;4.640;2023-12-20T10:37:37;101530.13;;;8.63;100.00
67457;BME280;54319;52.038;4.640;2023-12-20T10:40:05;101545.09;;;8.82;100.00
67457;BME280;54319;52.038;4.640;2023-12-20T10:42:32;101552.88;;;8.85;100.00
67457;BME280;54319;52.038;4.640;2023-12-20T10:45:00;101521.16;;;8.77;100.00
67457;BME280;54319;52.038;4.640;2023-12-20T10:47:27;101538.44;;;8.85;100.00
67457;BME280;54319;52.038;4.640;2023-12-20T10:49:54;101540.97;;;8.86;100.00
67457;BME280;54319;52.038;4.640;2023-12-20T10:52:23;101540.78;;;8.88;100.00
67457;BME280;54319;52.038;4.640;2023-12-20T10:54:51;101539.41;;;8.92;100.00
67457;BME280;54319;52.038;4.640;2023-12-20T10:57:18;101540.78;;;8.88;100.00
67457;BME280;54319;52.038;4.640;2023-12-20T10:59:48;101534.63;;;8.94;100.00
67457;BME280;54319;52.038;4.640;2023-12-20T11:02:16;101521.38;;;8.91;100.00
67457;BME280;54319;52.038;4.640;2023-12-20T11:04:47;101512.66;;;8.95;100.00
67457;BME280;54319;52.038;4.640;2023-12-20T11:07:21;101523.28;;;9.05;100.00
67457;BME280;54319;52.038;4.640;2023-12-20T11:10:01;101514.81;;;9.00;100.00
67457;BME280;54319;52.038;4.640;2023-12-20T11:12:36;101510.69;;;9.04;100.00
67457;BME280;54319;52.038;4.640;2023-12-20T11:15:04;101481.22;;;8.93;100.00
67457;BME280;54319;52.038;4.640;2023-12-20T11:17:31;101518.97;;;9.11;100.00
67457;BME280;54319;52.038;4.640;2023-12-20T11:20:07;101502.72;;;9.03;100.00
67457;BME280;54319;52.038;4.640;2023-12-20T11:22:36;101498.41;;;9.08;100.00
67457;BME280;54319;52.038;4.640;2023-12-20T11:25:07;101497.31;;;9.18;100.00
67457;BME280;54319;52.038;4.640;2023-12-20T11:27:35;101501.06;;;9.17;100.00
67457;BME280;54319;52.038;4.640;2023-12-20T11:30:03;101493.28;;;9.14;100.00
67457;BME280;54319;52.038;4.640;2023-12-20T11:32:34;101474.09;;;8.92;100.00
67457;BME280;54319;52.038;4.640;2023-12-20T11:37:43;101467.06;;;8.97;100.00
67457;BME280;54319;52.038;4.640;2023-12-20T11:40:15;101471.19;;;9.08;100.00
67457;BME280;54319;52.038;4.640;2023-12-20T11:42:43;101453.84;;;8.94;100.00
67457;BME280;54319;52.038;4.640;2023-12-20T11:45:11;101480.50;;;9.14;100.00
67457;BME280;54319;52.038;4.640;2023-12-20T11:47:40;101468.19;;;9.03;100.00
67457;BME280;54319;52.038;4.640;2023-12-20T11:50:07;101488.84;;;9.12;100.00
67457;BME280;54319;52.038;4.640;2023-12-20T11:52:35;101486.03;;;9.21;100.00
67457;BME280;54319;52.038;4.640;2023-12-20T11:55:01;101473.19;;;9.15;100.00
67457;BME280;54319;52.038;4.640;2023-12-20T11:57:30;101447.38;;;8.95;100.00
67457;BME280;54319;52.038;4.640;2023-12-20T11:59:57;101483.78;;;9.09;100.00
67457;BME280;54319;52.038;4.640;2023-12-20T12:02:24;101472.44;;;9.21;100.00
67457;BME280;54319;52.038;4.640;2023-12-20T12:04:50;101473.19;;;9.15;100.00
67457;BME280;54319;52.038;4.640;2023-12-20T12:07:17;101480.09;;;9.17;100.00
67457;BME280;54319;52.038;4.640;2023-12-20T12:09:44;101480.31;;;9.16;100.00
67457;BME280;54319;52.038;4.640;2023-12-20T12:12:11;101466.72;;;9.31;100.00
67457;BME280;54319;52.038;4.640;2023-12-20T12:14:40;101480.88;;;9.26;100.00
67457;BME280;54319;52.038;4.640;2023-12-20T12:17:10;101446.50;;;9.10;100.00
67457;BME280;54319;52.038;4.640;2023-12-20T12:19:37;101453.81;;;9.24;100.00
67457;BME280;54319;52.038;4.640;2023-12-20T12:22:07;101444.06;;;9.15;100.00
67457;BME280;54319;52.038;4.640;2023-12-20T12:24:36;101469.03;;;9.19;100.00
67457;BME280;54319;52.038;4.640;2023-12-20T12:27:05;101466.13;;;9.20;100.00
67457;BME280;54319;52.038;4.640;2023-12-20T12:29:32;101438.53;;;9.23;100.00
67457;BME280;54319;52.038;4.640;2023-12-20T12:32:00;101460.69;;;9.20;100.00
67457;BME280;54319;52.038;4.640;2023-12-20T12:34:27;101463.78;;;9.17;100.00
67457;BME280;54319;52.038;4.640;2023-12-20T12:36:54;101453.81;;;9.24;100.00
67457;BME280;54319;52.038;4.640;2023-12-20T12:39:23;101452.78;;;9.25;100.00
67457;BME280;54319;52.038;4.640;2023-12-20T12:41:50;101452.13;;;9.23;100.00
67457;BME280;54319;52.038;4.640;2023-12-20T12:44:17;101446.88;;;9.22;100.00
67457;BME280;54319;52.038;4.640;2023-12-20T12:46:44;101443.25;;;9.30;100.00
67457;BME280;54319;52.038;4.640;2023-12-20T12:49:12;101434.88;;;9.16;100.00
67457;BME280;54319;52.038;4.640;2023-12-20T12:51:39;101437.88;;;9.21;100.00
67457;BME280;54319;52.038;4.640;2023-12-20T12:54:06;101433.44;;;9.20;100.00